New Baltimore, Ohio
Current Conditions -  °F | °C
As of 2:35 PM on Thursday 30 Oct 2014 (Local Time) from KI67 Reporting Station
Clear Clear  
Wind Chill: 52°   Ceiling: Unl
Heat Index: 52°   Visibility: 10mi
Dew Point: 32°   Wind: 3mph
Humidity: 47%   Direction: 360°N
Pressure: 30.1"   Gusts: NA
Location:  39.2734°N, 84.7476°W
Report Text: KI67 301835Z AUTO 36003KT 10SM CLR 11/00 A3010 RMK AO1
Loading
Personal Weather Stations






























Interactive Weather Map
Tropical Storm Tracking
New forecast layout! Learn more

10-Day Weather Forecast

Advertisements
Track Severe Weather on mobile